sensor_id;sensor_type;location;lat;lon;timestamp;pressure;altitude;pressure_sealevel;temperature;humidity
32873;BME280;19224;52.462;16.898;2023-10-08T00:01:15;100179.95;;;14.40;100.00
32873;BME280;19224;52.462;16.898;2023-10-08T00:03:49;100191.25;;;14.39;100.00
32873;BME280;19224;52.462;16.898;2023-10-08T00:06:21;100198.53;;;14.39;100.00
32873;BME280;19224;52.462;16.898;2023-10-08T00:08:52;100200.56;;;14.49;100.00
32873;BME280;19224;52.462;16.898;2023-10-08T00:11:24;100199.36;;;14.32;100.00
32873;BME280;19224;52.462;16.898;2023-10-08T00:13:54;100197.65;;;14.52;100.00
32873;BME280;19224;52.462;16.898;2023-10-08T00:16:25;100189.11;;;14.23;100.00
32873;BME280;19224;52.462;16.898;2023-10-08T00:18:57;100199.95;;;14.23;100.00
32873;BME280;19224;52.462;16.898;2023-10-08T00:21:29;100207.10;;;14.31;100.00
32873;BME280;19224;52.462;16.898;2023-10-08T00:24:01;100195.97;;;14.22;100.00
32873;BME280;19224;52.462;16.898;2023-10-08T00:26:35;100198.00;;;14.32;100.00
32873;BME280;19224;52.462;16.898;2023-10-08T00:29:09;100200.82;;;14.38;100.00
32873;BME280;19224;52.462;16.898;2023-10-08T00:31:46;100203.26;;;14.35;100.00
32873;BME280;19224;52.462;16.898;2023-10-08T00:34:20;100207.72;;;14.50;100.00
32873;BME280;19224;52.462;16.898;2023-10-08T00:36:50;100207.03;;;14.46;100.00
32873;BME280;19224;52.462;16.898;2023-10-08T00:39:21;100196.58;;;14.47;100.00
32873;BME280;19224;52.462;16.898;2023-10-08T00:41:55;100213.14;;;14.50;100.00
32873;BME280;19224;52.462;16.898;2023-10-08T00:44:27;100201.52;;;14.34;100.00
32873;BME280;19224;52.462;16.898;2023-10-08T00:47:03;100229.58;;;14.40;100.00
32873;BME280;19224;52.462;16.898;2023-10-08T00:49:35;100230.56;;;14.53;100.00
32873;BME280;19224;52.462;16.898;2023-10-08T00:52:14;100206.64;;;14.45;100.00
32873;BME280;19224;52.462;16.898;2023-10-08T00:54:46;100202.27;;;14.29;100.00
32873;BME280;19224;52.462;16.898;2023-10-08T00:57:30;100191.53;;;14.35;100.00
32873;BME280;19224;52.462;16.898;2023-10-08T01:00:03;100194.25;;;14.28;100.00
32873;BME280;19224;52.462;16.898;2023-10-08T01:02:35;100182.38;;;14.44;100.00
32873;BME280;19224;52.462;16.898;2023-10-08T01:05:19;100185.81;;;14.32;100.00
32873;BME280;19224;52.462;16.898;2023-10-08T01:07:51;100200.33;;;14.31;100.00
32873;BME280;19224;52.462;16.898;2023-10-08T01:10:23;100229.97;;;14.34;100.00
32873;BME280;19224;52.462;16.898;2023-10-08T01:12:54;100212.34;;;14.41;100.00
32873;BME280;19224;52.462;16.898;2023-10-08T01:15:30;100215.34;;;14.37;100.00
32873;BME280;19224;52.462;16.898;2023-10-08T01:18:03;100209.84;;;14.38;100.00
32873;BME280;19224;52.462;16.898;2023-10-08T01:20:35;100225.23;;;14.15;100.00
32873;BME280;19224;52.462;16.898;2023-10-08T01:23:08;100225.75;;;13.99;100.00
32873;BME280;19224;52.462;16.898;2023-10-08T01:25:50;100228.76;;;13.95;100.00
32873;BME280;19224;52.462;16.898;2023-10-08T01:28:21;100226.75;;;14.05;100.00
32873;BME280;19224;52.462;16.898;2023-10-08T01:30:58;100238.23;;;14.17;100.00
32873;BME280;19224;52.462;16.898;2023-10-08T01:33:33;100236.06;;;14.15;100.00
32873;BME280;19224;52.462;16.898;2023-10-08T01:36:08;100238.05;;;14.05;100.00
32873;BME280;19224;52.462;16.898;2023-10-08T01:38:40;100244.77;;;14.13;100.00
32873;BME280;19224;52.462;16.898;2023-10-08T01:41:11;100259.75;;;14.12;100.00
32873;BME280;19224;52.462;16.898;2023-10-08T01:43:50;100272.79;;;14.05;100.00
32873;BME280;19224;52.462;16.898;2023-10-08T01:46:21;100287.27;;;13.82;100.00
32873;BME280;19224;52.462;16.898;2023-10-08T01:48:51;100296.36;;;13.65;100.00
32873;BME280;19224;52.462;16.898;2023-10-08T01:51:26;100304.79;;;13.83;100.00
32873;BME280;19224;52.462;16.898;2023-10-08T01:53:58;100306.08;;;13.69;100.00
32873;BME280;19224;52.462;16.898;2023-10-08T01:56:29;100312.32;;;13.78;100.00
32873;BME280;19224;52.462;16.898;2023-10-08T01:58:59;100319.42;;;13.72;100.00
32873;BME280;19224;52.462;16.898;2023-10-08T02:01:29;100321.03;;;13.83;100.00
32873;BME280;19224;52.462;16.898;2023-10-08T02:03:59;100314.79;;;13.74;100.00
32873;BME280;19224;52.462;16.898;2023-10-08T02:06:30;100310.27;;;13.75;100.00
32873;BME280;19224;52.462;16.898;2023-10-08T02:09:02;100323.15;;;13.78;100.00
32873;BME280;19224;52.462;16.898;2023-10-08T02:11:45;100339.16;;;13.74;100.00
32873;BME280;19224;52.462;16.898;2023-10-08T02:14:19;100333.86;;;13.64;100.00
32873;BME280;19224;52.462;16.898;2023-10-08T02:16:51;100324.26;;;13.59;100.00
32873;BME280;19224;52.462;16.898;2023-10-08T02:19:25;100311.51;;;13.76;100.00
32873;BME280;19224;52.462;16.898;2023-10-08T02:21:59;100324.52;;;13.70;100.00
32873;BME280;19224;52.462;16.898;2023-10-08T02:24:29;100335.70;;;13.48;100.00
32873;BME280;19224;52.462;16.898;2023-10-08T02:27:00;100336.55;;;13.57;100.00
32873;BME280;19224;52.462;16.898;2023-10-08T02:29:31;100341.06;;;13.57;100.00
32873;BME280;19224;52.462;16.898;2023-10-08T02:32:02;100343.77;;;13.57;100.00
32873;BME280;19224;52.462;16.898;2023-10-08T02:34:33;100368.95;;;13.50;100.00
32873;BME280;19224;52.462;16.898;2023-10-08T02:37:04;100382.87;;;13.51;100.00
32873;BME280;19224;52.462;16.898;2023-10-08T02:39:35;100388.22;;;13.53;100.00
32873;BME280;19224;52.462;16.898;2023-10-08T02:42:07;100365.47;;;13.48;100.00
32873;BME280;19224;52.462;16.898;2023-10-08T02:44:39;100335.91;;;13.52;100.00
32873;BME280;19224;52.462;16.898;2023-10-08T02:47:12;100348.45;;;13.46;100.00
32873;BME280;19224;52.462;16.898;2023-10-08T02:49:44;100360.23;;;13.37;100.00
32873;BME280;19224;52.462;16.898;2023-10-08T02:52:16;100381.91;;;13.28;100.00
32873;BME280;19224;52.462;16.898;2023-10-08T02:54:47;100379.34;;;13.34;100.00
32873;BME280;19224;52.462;16.898;2023-10-08T02:57:19;100390.14;;;13.42;100.00
32873;BME280;19224;52.462;16.898;2023-10-08T02:59:50;100415.41;;;13.34;100.00
32873;BME280;19224;52.462;16.898;2023-10-08T03:02:22;100404.05;;;13.28;100.00
32873;BME280;19224;52.462;16.898;2023-10-08T03:04:54;100407.22;;;13.27;100.00
32873;BME280;19224;52.462;16.898;2023-10-08T03:07:25;100424.77;;;13.36;100.00
32873;BME280;19224;52.462;16.898;2023-10-08T03:10:03;100425.31;;;13.42;100.00
32873;BME280;19224;52.462;16.898;2023-10-08T03:12:35;100431.78;;;13.40;100.00
32873;BME280;19224;52.462;16.898;2023-10-08T03:15:06;100446.28;;;13.22;100.00
32873;BME280;19224;52.462;16.898;2023-10-08T03:17:43;100445.30;;;13.31;100.00
32873;BME280;19224;52.462;16.898;2023-10-08T03:20:21;100429.16;;;13.21;100.00
32873;BME280;19224;52.462;16.898;2023-10-08T03:23:12;100433.63;;;13.31;100.00
32873;BME280;19224;52.462;16.898;2023-10-08T03:25:44;100439.28;;;13.26;100.00
32873;BME280;19224;52.462;16.898;2023-10-08T03:28:15;100435.70;;;13.17;100.00
32873;BME280;19224;52.462;16.898;2023-10-08T03:30:45;100449.14;;;13.10;100.00
32873;BME280;19224;52.462;16.898;2023-10-08T03:33:23;100461.25;;;13.03;100.00
32873;BME280;19224;52.462;16.898;2023-10-08T03:35:55;100453.82;;;12.81;100.00
32873;BME280;19224;52.462;16.898;2023-10-08T03:38:26;100462.00;;;12.80;100.00
32873;BME280;19224;52.462;16.898;2023-10-08T03:41:01;100457.95;;;12.71;100.00
32873;BME280;19224;52.462;16.898;2023-10-08T03:43:33;100460.35;;;12.77;100.00
32873;BME280;19224;52.462;16.898;2023-10-08T03:46:05;100464.60;;;12.64;100.00
32873;BME280;19224;52.462;16.898;2023-10-08T03:48:37;100468.19;;;12.73;100.00
32873;BME280;19224;52.462;16.898;2023-10-08T03:51:07;100475.41;;;12.64;100.00
32873;BME280;19224;52.462;16.898;2023-10-08T03:53:40;100485.27;;;12.65;100.00
32873;BME280;19224;52.462;16.898;2023-10-08T03:56:30;100484.45;;;12.46;100.00
32873;BME280;19224;52.462;16.898;2023-10-08T03:59:01;100482.55;;;12.48;100.00
32873;BME280;19224;52.462;16.898;2023-10-08T04:01:32;100492.95;;;12.47;100.00
32873;BME280;19224;52.462;16.898;2023-10-08T04:04:05;100499.81;;;12.36;100.00
32873;BME280;19224;52.462;16.898;2023-10-08T04:06:37;100507.68;;;12.32;100.00
32873;BME280;19224;52.462;16.898;2023-10-08T04:09:07;100512.50;;;12.25;100.00
32873;BME280;19224;52.462;16.898;2023-10-08T04:11:39;100522.55;;;12.13;100.00
32873;BME280;19224;52.462;16.898;2023-10-08T04:14:22;100526.03;;;11.97;100.00
32873;BME280;19224;52.462;16.898;2023-10-08T04:16:53;100537.50;;;11.92;100.00
32873;BME280;19224;52.462;16.898;2023-10-08T04:19:24;100545.71;;;11.81;100.00
32873;BME280;19224;52.462;16.898;2023-10-08T04:21:57;100551.45;;;11.73;100.00
32873;BME280;19224;52.462;16.898;2023-10-08T04:24:29;100560.27;;;11.77;100.00
32873;BME280;19224;52.462;16.898;2023-10-08T04:27:06;100558.72;;;11.71;100.00
32873;BME280;19224;52.462;16.898;2023-10-08T04:29:38;100573.16;;;11.70;100.00
32873;BME280;19224;52.462;16.898;2023-10-08T04:32:10;100579.10;;;11.68;100.00
32873;BME280;19224;52.462;16.898;2023-10-08T04:34:45;100588.29;;;11.64;100.00
32873;BME280;19224;52.462;16.898;2023-10-08T04:37:17;100588.20;;;11.66;100.00
32873;BME280;19224;52.462;16.898;2023-10-08T04:39:49;100594.03;;;11.67;100.00
32873;BME280;19224;52.462;16.898;2023-10-08T04:42:21;100604.67;;;11.60;100.00
32873;BME280;19224;52.462;16.898;2023-10-08T04:44:53;100615.06;;;11.59;100.00
32873;BME280;19224;52.462;16.898;2023-10-08T04:47:24;100621.41;;;11.58;100.00
32873;BME280;19224;52.462;16.898;2023-10-08T04:49:59;100620.36;;;11.50;100.00
32873;BME280;19224;52.462;16.898;2023-10-08T04:52:30;100633.64;;;11.45;100.00
32873;BME280;19224;52.462;16.898;2023-10-08T04:55:04;100628.24;;;11.13;100.00
32873;BME280;19224;52.462;16.898;2023-10-08T04:57:36;100627.52;;;11.20;100.00
32873;BME280;19224;52.462;16.898;2023-10-08T05:00:07;100632.91;;;11.20;100.00
32873;BME280;19224;52.462;16.898;2023-10-08T05:02:39;100637.84;;;11.20;100.00
32873;BME280;19224;52.462;16.898;2023-10-08T05:05:19;100646.57;;;11.15;100.00
32873;BME280;19224;52.462;16.898;2023-10-08T05:07:50;100646.31;;;10.90;100.00
32873;BME280;19224;52.462;16.898;2023-10-08T05:10:20;100656.25;;;10.88;100.00
32873;BME280;19224;52.462;16.898;2023-10-08T05:12:53;100665.01;;;10.83;100.00
32873;BME280;19224;52.462;16.898;2023-10-08T05:15:29;100672.78;;;10.90;100.00
32873;BME280;19224;52.462;16.898;2023-10-08T05:18:05;100669.36;;;10.97;100.00
32873;BME280;19224;52.462;16.898;2023-10-08T05:20:41;100685.88;;;10.78;100.00
32873;BME280;19224;52.462;16.898;2023-10-08T05:23:20;100685.22;;;10.71;100.00
32873;BME280;19224;52.462;16.898;2023-10-08T05:25:58;100691.09;;;10.71;100.00
32873;BME280;19224;52.462;16.898;2023-10-08T05:28:40;100697.10;;;10.66;100.00
32873;BME280;19224;52.462;16.898;2023-10-08T05:31:31;100708.57;;;10.82;100.00
32873;BME280;19224;52.462;16.898;2023-10-08T05:34:18;100715.03;;;10.78;100.00
32873;BME280;19224;52.462;16.898;2023-10-08T05:36:50;100719.88;;;10.80;100.00
32873;BME280;19224;52.462;16.898;2023-10-08T05:39:22;100724.18;;;10.74;99.62
32873;BME280;19224;52.462;16.898;2023-10-08T05:42:11;100737.34;;;10.70;99.62
32873;BME280;19224;52.462;16.898;2023-10-08T05:44:52;100730.48;;;10.85;98.64
32873;BME280;19224;52.462;16.898;2023-10-08T05:47:33;100736.95;;;10.81;98.56
32873;BME280;19224;52.462;16.898;2023-10-08T05:50:05;100738.69;;;10.70;98.63
32873;BME280;19224;52.462;16.898;2023-10-08T05:52:48;100739.39;;;10.64;98.86
32873;BME280;19224;52.462;16.898;2023-10-08T05:55:29;100743.49;;;10.74;98.62
32873;BME280;19224;52.462;16.898;2023-10-08T05:58:06;100755.72;;;10.82;98.27
32873;BME280;19224;52.462;16.898;2023-10-08T06:00:45;100762.23;;;10.77;98.60
32873;BME280;19224;52.462;16.898;2023-10-08T06:03:18;100766.33;;;10.87;98.05
32873;BME280;19224;52.462;16.898;2023-10-08T06:06:09;100771.25;;;10.76;99.16
32873;BME280;19224;52.462;16.898;2023-10-08T06:08:39;100779.41;;;10.97;98.25
32873;BME280;19224;52.462;16.898;2023-10-08T06:11:24;100773.67;;;11.06;98.13
32873;BME280;19224;52.462;16.898;2023-10-08T06:14:12;100787.30;;;11.13;98.24
32873;BME280;19224;52.462;16.898;2023-10-08T06:16:52;100781.80;;;11.05;98.28
32873;BME280;19224;52.462;16.898;2023-10-08T06:19:23;100790.53;;;11.23;97.87
32873;BME280;19224;52.462;16.898;2023-10-08T06:21:54;100799.07;;;11.22;98.40
32873;BME280;19224;52.462;16.898;2023-10-08T06:24:25;100800.88;;;11.22;98.86
32873;BME280;19224;52.462;16.898;2023-10-08T06:26:55;100819.87;;;11.19;98.71
32873;BME280;19224;52.462;16.898;2023-10-08T06:29:26;100817.00;;;11.23;98.31
32873;BME280;19224;52.462;16.898;2023-10-08T06:31:58;100827.79;;;11.23;96.72
32873;BME280;19224;52.462;16.898;2023-10-08T06:34:31;100842.03;;;11.27;97.52
32873;BME280;19224;52.462;16.898;2023-10-08T06:37:02;100835.39;;;11.35;97.27
32873;BME280;19224;52.462;16.898;2023-10-08T06:39:33;100854.36;;;11.34;96.57
32873;BME280;19224;52.462;16.898;2023-10-08T06:42:05;100858.09;;;11.30;96.89
32873;BME280;19224;52.462;16.898;2023-10-08T06:44:38;100857.56;;;11.43;96.87
32873;BME280;19224;52.462;16.898;2023-10-08T06:47:10;100854.55;;;11.51;95.38
32873;BME280;19224;52.462;16.898;2023-10-08T06:49:40;100867.31;;;11.59;94.83
32873;BME280;19224;52.462;16.898;2023-10-08T06:52:11;100872.27;;;11.69;94.39
32873;BME280;19224;52.462;16.898;2023-10-08T06:54:43;100873.52;;;11.61;94.26
32873;BME280;19224;52.462;16.898;2023-10-08T06:57:13;100872.80;;;11.67;94.25
32873;BME280;19224;52.462;16.898;2023-10-08T06:59:43;100881.92;;;11.86;93.66
32873;BME280;19224;52.462;16.898;2023-10-08T07:02:15;100889.17;;;11.95;92.89
32873;BME280;19224;52.462;16.898;2023-10-08T07:04:46;100890.47;;;11.97;92.45
32873;BME280;19224;52.462;16.898;2023-10-08T07:07:17;100891.27;;;11.99;93.42
32873;BME280;19224;52.462;16.898;2023-10-08T07:09:48;100892.58;;;12.10;92.61
32873;BME280;19224;52.462;16.898;2023-10-08T07:12:19;100899.55;;;12.06;93.45
32873;BME280;19224;52.462;16.898;2023-10-08T07:14:51;100911.07;;;12.09;91.67
32873;BME280;19224;52.462;16.898;2023-10-08T07:17:23;100908.54;;;12.16;91.08
32873;BME280;19224;52.462;16.898;2023-10-08T07:19:55;100910.56;;;12.11;90.77
32873;BME280;19224;52.462;16.898;2023-10-08T07:22:26;100915.55;;;12.20;91.61
32873;BME280;19224;52.462;16.898;2023-10-08T07:24:57;100917.07;;;12.27;89.92
32873;BME280;19224;52.462;16.898;2023-10-08T07:27:28;100919.05;;;12.34;87.95
32873;BME280;19224;52.462;16.898;2023-10-08T07:30:04;100911.83;;;12.34;88.28
32873;BME280;19224;52.462;16.898;2023-10-08T07:32:38;100908.92;;;12.49;86.38
32873;BME280;19224;52.462;16.898;2023-10-08T07:35:09;100916.44;;;12.52;86.21
32873;BME280;19224;52.462;16.898;2023-10-08T07:37:54;100924.68;;;12.49;84.14
32873;BME280;19224;52.462;16.898;2023-10-08T07:40:27;100916.99;;;12.60;83.80
32873;BME280;19224;52.462;16.898;2023-10-08T07:42:59;100925.36;;;12.64;83.89
32873;BME280;19224;52.462;16.898;2023-10-08T07:45:31;100932.94;;;12.76;82.51
32873;BME280;19224;52.462;16.898;2023-10-08T07:48:04;100933.38;;;12.77;79.67
32873;BME280;19224;52.462;16.898;2023-10-08T07:50:41;100928.98;;;12.85;78.93
32873;BME280;19224;52.462;16.898;2023-10-08T07:53:13;100940.80;;;12.92;79.50
32873;BME280;19224;52.462;16.898;2023-10-08T07:55:46;100943.00;;;12.94;76.08
32873;BME280;19224;52.462;16.898;2023-10-08T07:58:19;100950.91;;;12.99;76.68
32873;BME280;19224;52.462;16.898;2023-10-08T08:00:49;100951.87;;;12.86;73.96
32873;BME280;19224;52.462;16.898;2023-10-08T08:03:23;100957.03;;;12.92;74.09
32873;BME280;19224;52.462;16.898;2023-10-08T08:05:54;100963.67;;;12.95;75.30
32873;BME280;19224;52.462;16.898;2023-10-08T08:08:25;100967.94;;;13.01;71.86
32873;BME280;19224;52.462;16.898;2023-10-08T08:10:56;100958.42;;;13.02;72.01
32873;BME280;19224;52.462;16.898;2023-10-08T08:13:38;100972.34;;;12.93;67.56
32873;BME280;19224;52.462;16.898;2023-10-08T08:16:04;100973.23;;;12.82;66.39
32873;BME280;19224;52.462;16.898;2023-10-08T08:18:39;100976.19;;;12.98;67.06
32873;BME280;19224;52.462;16.898;2023-10-08T08:21:14;100980.37;;;13.05;66.45
32873;BME280;19224;52.462;16.898;2023-10-08T08:23:47;100986.93;;;13.09;64.24
32873;BME280;19224;52.462;16.898;2023-10-08T08:26:24;100987.42;;;13.29;65.32
32873;BME280;19224;52.462;16.898;2023-10-08T08:29:07;100996.34;;;13.31;67.48
32873;BME280;19224;52.462;16.898;2023-10-08T08:31:34;101002.10;;;13.23;66.14
32873;BME280;19224;52.462;16.898;2023-10-08T08:34:07;101013.78;;;13.34;64.86
32873;BME280;19224;52.462;16.898;2023-10-08T08:36:41;101008.02;;;13.31;62.56
32873;BME280;19224;52.462;16.898;2023-10-08T08:39:13;101011.08;;;13.44;63.13
32873;BME280;19224;52.462;16.898;2023-10-08T08:41:45;101019.45;;;13.38;64.55
32873;BME280;19224;52.462;16.898;2023-10-08T08:44:18;101022.56;;;13.49;63.01
32873;BME280;19224;52.462;16.898;2023-10-08T08:46:50;101038.48;;;13.36;63.25
32873;BME280;19224;52.462;16.898;2023-10-08T08:49:23;101026.42;;;13.43;60.78
32873;BME280;19224;52.462;16.898;2023-10-08T08:51:53;101035.89;;;13.43;62.63
32873;BME280;19224;52.462;16.898;2023-10-08T08:54:25;101055.47;;;13.40;63.78
32873;BME280;19224;52.462;16.898;2023-10-08T08:56:57;101041.19;;;13.56;62.74
32873;BME280;19224;52.462;16.898;2023-10-08T08:59:29;101037.13;;;13.46;59.76
32873;BME280;19224;52.462;16.898;2023-10-08T09:02:00;101052.56;;;13.34;61.82
32873;BME280;19224;52.462;16.898;2023-10-08T09:04:33;101032.27;;;13.44;58.95
32873;BME280;19224;52.462;16.898;2023-10-08T09:07:05;101064.20;;;13.46;59.65
32873;BME280;19224;52.462;16.898;2023-10-08T09:09:36;101039.89;;;13.45;56.50
32873;BME280;19224;52.462;16.898;2023-10-08T09:12:09;101038.39;;;13.48;57.91
32873;BME280;19224;52.462;16.898;2023-10-08T09:14:39;101057.83;;;13.57;57.72
32873;BME280;19224;52.462;16.898;2023-10-08T09:17:13;101061.29;;;13.51;57.74
32873;BME280;19224;52.462;16.898;2023-10-08T09:19:47;101056.33;;;13.60;58.42
32873;BME280;19224;52.462;16.898;2023-10-08T09:22:20;101055.36;;;13.81;59.66
32873;BME280;19224;52.462;16.898;2023-10-08T09:24:50;101055.04;;;13.97;60.27
32873;BME280;19224;52.462;16.898;2023-10-08T09:27:22;101050.86;;;14.00;58.86
32873;BME280;19224;52.462;16.898;2023-10-08T09:29:55;101059.14;;;13.77;58.83
32873;BME280;19224;52.462;16.898;2023-10-08T09:32:26;101059.47;;;13.90;59.47
32873;BME280;19224;52.462;16.898;2023-10-08T09:34:58;101065.22;;;13.92;57.66
32873;BME280;19224;52.462;16.898;2023-10-08T09:37:29;101052.02;;;13.95;57.71
32873;BME280;19224;52.462;16.898;2023-10-08T09:40:00;101056.58;;;13.64;57.91
32873;BME280;19224;52.462;16.898;2023-10-08T09:42:35;101063.36;;;13.54;58.69
32873;BME280;19224;52.462;16.898;2023-10-08T09:45:09;101055.23;;;13.54;58.13
32873;BME280;19224;52.462;16.898;2023-10-08T09:47:48;101054.42;;;13.62;59.13
32873;BME280;19224;52.462;16.898;2023-10-08T09:50:20;101064.13;;;13.96;59.30
32873;BME280;19224;52.462;16.898;2023-10-08T09:53:09;101064.50;;;14.07;59.23
32873;BME280;19224;52.462;16.898;2023-10-08T09:55:55;101084.44;;;13.96;55.04
32873;BME280;19224;52.462;16.898;2023-10-08T09:58:28;101071.42;;;14.04;55.46
32873;BME280;19224;52.462;16.898;2023-10-08T10:00:59;101065.59;;;14.13;54.78
32873;BME280;19224;52.462;16.898;2023-10-08T10:03:30;101084.77;;;14.19;53.88
32873;BME280;19224;52.462;16.898;2023-10-08T10:06:03;101071.53;;;14.21;52.80
32873;BME280;19224;52.462;16.898;2023-10-08T10:08:36;101083.72;;;14.21;51.01
32873;BME280;19224;52.462;16.898;2023-10-08T10:11:06;101089.48;;;14.24;50.67
32873;BME280;19224;52.462;16.898;2023-10-08T10:13:44;101078.43;;;14.28;51.12
32873;BME280;19224;52.462;16.898;2023-10-08T10:16:21;101083.25;;;14.12;50.26
32873;BME280;19224;52.462;16.898;2023-10-08T10:18:57;101068.30;;;14.23;50.64
32873;BME280;19224;52.462;16.898;2023-10-08T10:21:33;101085.52;;;14.22;50.51
32873;BME280;19224;52.462;16.898;2023-10-08T10:24:05;101092.28;;;14.12;50.34
32873;BME280;19224;52.462;16.898;2023-10-08T10:26:37;101091.32;;;14.13;50.07
32873;BME280;19224;52.462;16.898;2023-10-08T10:31:47;101088.13;;;14.24;49.23
32873;BME280;19224;52.462;16.898;2023-10-08T10:34:24;101089.21;;;14.30;49.09
32873;BME280;19224;52.462;16.898;2023-10-08T10:36:58;101099.16;;;14.29;48.16
32873;BME280;19224;52.462;16.898;2023-10-08T10:39:30;101083.08;;;14.53;50.03
32873;BME280;19224;52.462;16.898;2023-10-08T10:42:03;101088.86;;;14.64;50.13
32873;BME280;19224;52.462;16.898;2023-10-08T10:44:35;101098.91;;;14.62;48.49
32873;BME280;19224;52.462;16.898;2023-10-08T10:47:11;101105.53;;;14.83;49.00
32873;BME280;19224;52.462;16.898;2023-10-08T10:49:50;101095.38;;;15.05;50.60
32873;BME280;19224;52.462;16.898;2023-10-08T10:52:27;101111.53;;;14.90;50.75
32873;BME280;19224;52.462;16.898;2023-10-08T10:55:16;101095.55;;;14.84;50.08
32873;BME280;19224;52.462;16.898;2023-10-08T10:57:57;101094.70;;;14.92;49.42
32873;BME280;19224;52.462;16.898;2023-10-08T11:00:45;101086.84;;;15.13;51.13
32873;BME280;19224;52.462;16.898;2023-10-08T11:03:17;101085.27;;;14.99;50.59
32873;BME280;19224;52.462;16.898;2023-10-08T11:05:54;101104.87;;;15.14;49.27
32873;BME280;19224;52.462;16.898;2023-10-08T11:08:24;101088.13;;;15.23;47.45
32873;BME280;19224;52.462;16.898;2023-10-08T11:10:55;101097.59;;;15.06;45.73
32873;BME280;19224;52.462;16.898;2023-10-08T11:13:27;101095.67;;;15.08;46.43
32873;BME280;19224;52.462;16.898;2023-10-08T11:16:05;101088.88;;;14.91;47.19
32873;BME280;19224;52.462;16.898;2023-10-08T11:18:43;101088.42;;;15.00;48.46
32873;BME280;19224;52.462;16.898;2023-10-08T11:21:16;101093.34;;;14.92;49.30
32873;BME280;19224;52.462;16.898;2023-10-08T11:23:50;101092.49;;;15.00;48.35
32873;BME280;19224;52.462;16.898;2023-10-08T11:26:26;101098.26;;;15.11;48.58
32873;BME280;19224;52.462;16.898;2023-10-08T11:29:06;101093.92;;;15.34;47.01
32873;BME280;19224;52.462;16.898;2023-10-08T11:31:38;101101.77;;;15.13;46.66
32873;BME280;19224;52.462;16.898;2023-10-08T11:34:11;101098.66;;;15.20;45.24
32873;BME280;19224;52.462;16.898;2023-10-08T11:36:42;101090.28;;;15.25;46.07
32873;BME280;19224;52.462;16.898;2023-10-08T11:39:19;101107.59;;;15.22;45.81
32873;BME280;19224;52.462;16.898;2023-10-08T11:42:01;101109.52;;;15.29;44.58
32873;BME280;19224;52.462;16.898;2023-10-08T11:44:34;101079.45;;;15.42;45.49
32873;BME280;19224;52.462;16.898;2023-10-08T11:47:05;101083.30;;;15.63;46.06
32873;BME280;19224;52.462;16.898;2023-10-08T11:49:43;101087.69;;;15.49;45.31
32873;BME280;19224;52.462;16.898;2023-10-08T11:52:19;101092.30;;;15.38;46.27
32873;BME280;19224;52.462;16.898;2023-10-08T11:54:50;101099.78;;;15.25;46.45
32873;BME280;19224;52.462;16.898;2023-10-08T11:57:22;101111.21;;;14.96;47.67
32873;BME280;19224;52.462;16.898;2023-10-08T11:59:54;101105.56;;;15.09;48.00
32873;BME280;19224;52.462;16.898;2023-10-08T12:02:27;101105.50;;;15.02;47.83
32873;BME280;19224;52.462;16.898;2023-10-08T12:04:58;101101.55;;;14.90;48.50
32873;BME280;19224;52.462;16.898;2023-10-08T12:07:28;101097.48;;;14.99;46.88
32873;BME280;19224;52.462;16.898;2023-10-08T12:10:00;101106.62;;;15.15;46.84
32873;BME280;19224;52.462;16.898;2023-10-08T12:12:34;101103.75;;;15.18;47.68
32873;BME280;19224;52.462;16.898;2023-10-08T12:15:06;101105.21;;;15.25;47.18
32873;BME280;19224;52.462;16.898;2023-10-08T12:17:38;101111.48;;;15.00;46.42
32873;BME280;19224;52.462;16.898;2023-10-08T12:20:09;101107.54;;;14.97;44.39
32873;BME280;19224;52.462;16.898;2023-10-08T12:22:44;101103.41;;;15.07;44.02
32873;BME280;19224;52.462;16.898;2023-10-08T12:25:14;101124.05;;;15.19;44.48
32873;BME280;19224;52.462;16.898;2023-10-08T12:27:45;101134.67;;;14.97;42.63
32873;BME280;19224;52.462;16.898;2023-10-08T12:30:16;101128.73;;;15.07;43.13
32873;BME280;19224;52.462;16.898;2023-10-08T12:32:49;101124.44;;;15.12;43.59
32873;BME280;19224;52.462;16.898;2023-10-08T12:35:20;101117.69;;;15.37;44.22
32873;BME280;19224;52.462;16.898;2023-10-08T12:37:52;101114.05;;;15.47;43.03
32873;BME280;19224;52.462;16.898;2023-10-08T12:40:23;101113.55;;;15.30;44.29
32873;BME280;19224;52.462;16.898;2023-10-08T12:42:54;101111.44;;;15.27;44.27
32873;BME280;19224;52.462;16.898;2023-10-08T12:45:24;101123.84;;;15.49;44.34
32873;BME280;19224;52.462;16.898;2023-10-08T12:47:56;101107.41;;;15.61;44.13
32873;BME280;19224;52.462;16.898;2023-10-08T12:50:27;101106.37;;;15.72;43.92
32873;BME280;19224;52.462;16.898;2023-10-08T12:53:02;101105.41;;;15.73;43.71
32873;BME280;19224;52.462;16.898;2023-10-08T12:55:33;101102.45;;;15.77;43.66
32873;BME280;19224;52.462;16.898;2023-10-08T12:58:06;101098.73;;;16.04;43.76
32873;BME280;19224;52.462;16.898;2023-10-08T13:00:38;101095.55;;;15.96;42.51
32873;BME280;19224;52.462;16.898;2023-10-08T13:03:10;101098.45;;;16.17;42.33
32873;BME280;19224;52.462;16.898;2023-10-08T13:05:43;101096.95;;;15.79;43.24
32873;BME280;19224;52.462;16.898;2023-10-08T13:08:13;101096.05;;;15.78;43.15
32873;BME280;19224;52.462;16.898;2023-10-08T13:10:44;101111.80;;;15.72;43.75